Time;durP1;ratioP1;P1;durP2;ratioP2;P2;SDS_P1;SDS_P2;PMS_P1;PMS_P2;Temp;Humidity;BMP_temperature;BMP_pressure;BME280_temperature;BME280_humidity;BME280_pressure;Samples;Min_cycle;Max_cycle;Signal;HPM_P1;HPM_P2
2023/01/16 00:01:39;;;;;;;1.30;1.20;;;;;;;-0.47;100.00;95203.50;5070716;28;20471;-73
2023/01/16 00:04:05;;;;;;;4.60;1.30;;;;;;;-0.73;100.00;95168.63;5069452;28;20776;-73
2023/01/16 00:06:33;;;;;;;1.60;1.20;;;;;;;-0.74;100.00;95165.25;5082531;28;20453;-73
2023/01/16 00:09:00;;;;;;;2.90;1.70;;;;;;;-0.72;100.00;95162.38;5077882;28;20971;-73
2023/01/16 00:11:27;;;;;;;4.97;1.80;;;;;;;-0.66;100.00;95174.22;5057181;28;20428;-73
2023/01/16 00:13:54;;;;;;;1.63;1.47;;;;;;;-0.74;100.00;95154.88;5072934;28;20432;-73
2023/01/16 00:16:21;;;;;;;3.00;1.50;;;;;;;-0.73;100.00;95151.22;5072853;28;20513;-73
2023/01/16 00:18:49;;;;;;;2.10;1.60;;;;;;;-0.50;100.00;95177.34;5072728;28;20819;-73
2023/01/16 00:21:17;;;;;;;4.13;2.50;;;;;;;-0.45;100.00;95177.25;5072920;28;20428;-73
2023/01/16 00:23:43;;;;;;;2.30;1.90;;;;;;;-0.62;100.00;95162.22;5072598;28;20903;-73
2023/01/16 00:26:11;;;;;;;2.70;1.63;;;;;;;-0.67;100.00;95142.31;5053160;28;20448;-73
2023/01/16 00:28:39;;;;;;;6.50;2.17;;;;;;;-0.47;100.00;95166.41;5065654;28;20475;-73
2023/01/16 00:31:06;;;;;;;2.63;1.57;;;;;;;-0.47;100.00;95169.75;5060376;28;20522;-73
2023/01/16 00:33:33;;;;;;;1.60;1.40;;;;;;;-0.67;100.00;95149.31;5055989;28;20798;-73
2023/01/16 00:36:01;;;;;;;3.57;1.50;;;;;;;-0.62;100.00;95167.41;5060752;28;20550;-73
2023/01/16 00:38:28;;;;;;;2.33;2.13;;;;;;;-0.86;100.00;95156.34;5073865;28;20969;-73
2023/01/16 00:40:54;;;;;;;3.43;2.03;;;;;;;-1.06;100.00;95132.28;5073781;28;20420;-73
2023/01/16 00:43:21;;;;;;;2.23;1.90;;;;;;;-1.21;100.00;95153.97;5073615;28;20494;-73
2023/01/16 00:45:49;;;;;;;1.87;1.73;;;;;;;-1.44;100.00;95110.00;5048130;28;20495;-73
2023/01/16 00:48:15;;;;;;;3.53;1.40;;;;;;;-1.46;100.00;95107.69;5050066;28;20958;-73
2023/01/16 00:50:42;;;;;;;2.33;2.13;;;;;;;-1.24;100.00;95122.66;5065834;28;20464;-73
2023/01/16 00:53:09;;;;;;;1.80;1.43;;;;;;;-1.26;100.00;95101.44;5053398;28;20864;-73
2023/01/16 00:55:36;;;;;;;5.20;1.70;;;;;;;-1.30;100.00;95084.91;5073441;28;20491;-73
2023/01/16 00:58:04;;;;;;;3.30;2.10;;;;;;;-1.09;100.00;95111.31;5042185;28;20543;-73
2023/01/16 01:00:30;;;;;;;2.50;1.80;;;;;;;-1.07;100.00;95114.38;5063609;28;20442;-73
2023/01/16 01:02:57;;;;;;;2.03;1.70;;;;;;;-1.13;100.00;95092.19;5067071;28;20464;-73
2023/01/16 01:05:24;;;;;;;3.33;2.70;;;;;;;-1.17;100.00;95086.03;5058384;28;20569;-73
2023/01/16 01:07:51;;;;;;;2.07;1.87;;;;;;;-1.12;100.00;95112.63;5067015;28;20440;-73
2023/01/16 01:10:17;;;;;;;2.07;1.67;;;;;;;-1.28;100.00;95075.81;5055245;28;20459;-73
2023/01/16 01:12:44;;;;;;;3.67;1.63;;;;;;;-0.95;100.00;95114.72;5070904;28;20530;-73
2023/01/16 01:15:11;;;;;;;2.00;1.90;;;;;;;-1.37;100.00;95028.22;5060412;28;20454;-73
2023/01/16 01:17:37;;;;;;;2.17;1.33;;;;;;;-0.88;100.00;95102.16;5056250;28;20436;-73
2023/01/16 01:20:05;;;;;;;1.77;1.53;;;;;;;-0.95;100.00;95097.34;5060760;28;20455;-73
2023/01/16 01:22:32;;;;;;;2.73;1.40;;;;;;;-1.22;100.00;95064.28;5058043;28;20493;-73
2023/01/16 01:24:58;;;;;;;1.97;1.70;;;;;;;-1.23;100.00;95088.69;5071463;28;20899;-73
2023/01/16 01:27:25;;;;;;;2.40;1.40;;;;;;;-1.20;100.00;95088.13;5071389;28;20539;-73
2023/01/16 01:29:52;;;;;;;6.33;3.37;;;;;;;-1.47;100.00;95051.69;5055041;28;20780;-73
2023/01/16 01:32:18;;;;;;;3.73;1.60;;;;;;;-1.08;100.00;95089.50;5068686;28;20430;-73
2023/01/16 01:34:45;;;;;;;1.97;1.40;;;;;;;-1.16;100.00;95046.84;5060955;28;20432;-73
2023/01/16 01:37:12;;;;;;;2.83;1.50;;;;;;;-0.70;100.00;95078.00;5057885;28;20452;-73
2023/01/16 01:39:38;;;;;;;1.20;1.10;;;;;;;-0.64;100.00;95071.69;5054671;28;20535;-73
2023/01/16 01:44:56;;;;;;;3.67;1.50;;;;;;;-0.74;100.00;95058.88;5060013;28;20793;-73
2023/01/16 01:47:29;;;;;;;2.97;1.90;;;;;;;-0.77;100.00;95051.66;5058220;28;20815;-73
2023/01/16 01:49:58;;;;;;;1.70;1.33;;;;;;;-0.84;100.00;95037.50;5057614;28;20492;-73
2023/01/16 01:52:28;;;;;;;1.47;1.37;;;;;;;-0.75;100.00;95057.34;5071000;28;20487;-73
2023/01/16 01:55:04;;;;;;;2.03;1.83;;;;;;;-0.91;100.00;95027.53;5041117;28;20439;-73
2023/01/16 01:57:42;;;;;;;1.80;1.50;;;;;;;-0.88;100.00;95037.31;5054431;28;20535;-73
2023/01/16 02:00:14;;;;;;;1.60;1.43;;;;;;;-0.85;100.00;95043.75;5054354;28;20970;-73
2023/01/16 02:02:48;;;;;;;5.73;2.93;;;;;;;-1.35;100.00;94963.16;5070931;28;20988;-73
2023/01/16 02:05:23;;;;;;;1.47;1.37;;;;;;;-0.89;100.00;95033.19;5082255;28;21079;-73
2023/01/16 02:07:50;;;;;;;1.90;1.70;;;;;;;-1.06;100.00;94999.25;5052457;28;20518;-73
2023/01/16 02:10:33;;;;;;;3.20;2.00;;;;;;;-1.03;100.00;94998.69;5050769;28;20476;-73
2023/01/16 02:13:00;;;;;;;1.60;1.50;;;;;;;-0.97;100.00;94992.34;5066272;28;20922;-73
2023/01/16 02:15:28;;;;;;;1.57;1.47;;;;;;;-0.83;100.00;95011.28;5044912;28;20456;-73
2023/01/16 02:20:48;;;;;;;1.97;1.60;;;;;;;-0.76;100.00;95006.50;5071811;28;20426;-73
2023/01/16 02:23:37;;;;;;;4.73;2.60;;;;;;;-0.78;100.00;94987.88;5070329;28;20550;-73
2023/01/16 02:26:03;;;;;;;1.47;1.37;;;;;;;-0.76;100.00;94993.53;5057193;28;20980;-73
2023/01/16 02:28:58;;;;;;;3.53;1.60;;;;;;;-0.77;100.00;94988.63;5060425;28;20513;-73
2023/01/16 02:31:36;;;;;;;2.00;1.50;;;;;;;-0.88;100.00;94962.09;5070954;28;20433;-73
2023/01/16 02:34:24;;;;;;;3.30;2.97;;;;;;;-0.74;100.00;94982.88;5056812;28;20432;-73
2023/01/16 02:37:00;;;;;;;2.07;1.20;;;;;;;-0.67;100.00;94973.66;5070401;28;20490;-73
2023/01/16 02:39:39;;;;;;;1.67;1.53;;;;;;;-0.74;100.00;94967.28;5084967;28;20419;-73
2023/01/16 02:42:28;;;;;;;1.20;1.10;;;;;;;-0.97;100.00;94935.28;5096378;28;20408;-73
2023/01/16 02:44:55;;;;;;;1.70;1.40;;;;;;;-0.78;100.00;94961.91;5074820;28;20471;-73
2023/01/16 02:47:37;;;;;;;3.80;1.60;;;;;;;-0.77;100.00;94955.69;5072038;28;20467;-73
2023/01/16 02:50:22;;;;;;;1.60;1.10;;;;;;;-0.79;100.00;94957.78;5070216;28;20455;-73
2023/01/16 02:53:17;;;;;;;1.87;1.73;;;;;;;-0.92;100.00;94930.03;5059859;28;20401;-73
2023/01/16 02:55:53;;;;;;;1.57;1.27;;;;;;;-0.77;100.00;94936.75;5060088;28;21025;-73
2023/01/16 02:58:22;;;;;;;1.40;1.30;;;;;;;-0.89;100.00;94908.69;5056505;28;20446;-73
2023/01/16 03:00:57;;;;;;;5.90;1.57;;;;;;;-0.73;100.00;94927.31;5069906;28;20462;-73
2023/01/16 03:03:45;;;;;;;1.37;1.27;;;;;;;-0.69;100.00;94931.63;5069859;28;20475;-73
2023/01/16 03:06:39;;;;;;;1.47;1.37;;;;;;;-0.89;100.00;94898.31;5048291;28;20460;-73
2023/01/16 03:09:32;;;;;;;2.27;1.73;;;;;;;-0.68;100.00;94920.19;5069761;28;20540;-73
2023/01/16 03:12:07;;;;;;;1.57;1.30;;;;;;;-0.73;100.00;94903.97;5033435;28;20527;-73
2023/01/16 03:14:37;;;;;;;3.37;1.63;;;;;;;-0.97;100.00;94873.81;5066314;28;20465;-73
2023/01/16 03:17:21;;;;;;;2.83;1.30;;;;;;;-0.87;100.00;94874.69;5060162;28;20458;-73
2023/01/16 03:20:10;;;;;;;2.83;2.60;;;;;;;-0.66;100.00;94902.53;5053042;28;20432;-73
2023/01/16 03:22:43;;;;;;;1.50;1.40;;;;;;;-0.69;100.00;94892.72;5069326;28;20482;-73
2023/01/16 03:25:19;;;;;;;2.10;1.90;;;;;;;-0.74;100.00;94877.25;5079164;28;20536;-73
2023/01/16 03:28:01;;;;;;;2.50;1.70;;;;;;;-0.67;100.00;94871.66;5065581;28;20536;-73
2023/01/16 03:30:39;;;;;;;5.30;1.63;;;;;;;-0.83;100.00;94836.72;5047132;28;20980;-73
2023/01/16 03:33:15;;;;;;;5.03;1.53;;;;;;;-0.71;100.00;94848.13;5069545;28;20912;-73
2023/01/16 03:35:52;;;;;;;1.37;1.20;;;;;;;-0.91;100.00;94831.16;5069437;28;20444;-73
2023/01/16 03:38:21;;;;;;;1.97;1.67;;;;;;;-0.86;100.00;94829.53;5071221;28;20449;-73
2023/01/16 03:40:50;;;;;;;5.43;1.33;;;;;;;-0.71;100.00;94853.31;5034504;28;20448;-73
2023/01/16 03:43:23;;;;;;;2.00;1.07;;;;;;;-0.69;100.00;94855.63;5062309;28;20456;-73
2023/01/16 03:45:59;;;;;;;1.53;1.30;;;;;;;-0.82;100.00;94840.84;5059519;28;20552;-73
2023/01/16 03:48:50;;;;;;;3.13;1.00;;;;;;;-0.73;100.00;94846.91;5074539;28;20450;-73
2023/01/16 03:51:31;;;;;;;3.87;2.50;;;;;;;-0.84;100.00;94850.75;5051756;28;20434;-73
2023/01/16 03:54:13;;;;;;;2.70;1.60;;;;;;;-0.87;100.00;94831.34;5044569;28;20970;-73
2023/01/16 03:56:56;;;;;;;1.53;1.30;;;;;;;-0.94;100.00;94833.56;5042924;28;21033;-73
2023/01/16 03:59:23;;;;;;;2.70;1.20;;;;;;;-1.21;100.00;94783.25;5056544;28;20438;-73
2023/01/16 04:01:56;;;;;;;2.27;1.80;;;;;;;-0.85;100.00;94825.88;5073249;28;20440;-73
2023/01/16 04:04:34;;;;;;;2.23;1.77;;;;;;;-0.83;100.00;94821.91;5072972;28;20464;-73
2023/01/16 04:07:20;;;;;;;3.80;1.17;;;;;;;-0.61;100.00;94818.63;5044602;28;20538;-73
2023/01/16 04:09:57;;;;;;;1.37;1.27;;;;;;;-0.59;100.00;94819.09;5075626;28;20428;-73
2023/01/16 04:12:36;;;;;;;1.53;1.30;;;;;;;-0.77;100.00;94791.47;5074448;28;20455;-74
2023/01/16 04:15:06;;;;;;;1.77;1.40;;;;;;;-0.60;100.00;94812.38;5060822;28;20764;-73
2023/01/16 04:17:36;;;;;;;1.40;1.30;;;;;;;-0.55;100.00;94798.50;5060741;28;20905;-73
2023/01/16 04:20:03;;;;;;;2.40;1.20;;;;;;;-0.76;100.00;94773.00;5056117;28;20501;-73
2023/01/16 04:22:30;;;;;;;2.60;1.23;;;;;;;-0.57;100.00;94788.41;5060288;28;20467;-73
2023/01/16 04:25:00;;;;;;;3.10;1.33;;;;;;;-0.41;100.00;94781.81;5055923;28;20490;-73
2023/01/16 04:27:27;;;;;;;1.77;1.30;;;;;;;-0.46;100.00;94757.81;5059097;28;20433;-73
2023/01/16 04:29:55;;;;;;;1.17;1.07;;;;;;;-0.39;100.00;94758.97;5073771;28;21004;-73
2023/01/16 04:32:22;;;;;;;1.40;1.30;;;;;;;-0.34;100.00;94750.28;5055691;28;20866;-73
2023/01/16 04:34:48;;;;;;;1.60;1.50;;;;;;;-0.39;100.00;94732.25;5073663;28;20515;-73
2023/01/16 04:37:16;;;;;;;5.40;1.70;;;;;;;-0.35;100.00;94743.56;5058759;28;20456;-73
2023/01/16 04:39:43;;;;;;;2.27;1.47;;;;;;;-0.35;100.00;94738.38;5055612;28;20924;-73
2023/01/16 04:42:11;;;;;;;2.60;1.60;;;;;;;-0.69;100.00;94687.75;5058704;28;20539;-73
2023/01/16 04:44:37;;;;;;;1.50;1.20;;;;;;;-0.59;100.00;94702.31;5072005;28;20469;-73
2023/01/16 04:47:04;;;;;;;1.80;1.57;;;;;;;-0.70;100.00;94688.81;5058397;28;20482;-73
2023/01/16 04:49:31;;;;;;;2.23;1.20;;;;;;;-0.73;100.00;94696.44;5062708;28;20766;-73
2023/01/16 04:51:58;;;;;;;1.57;1.20;;;;;;;-0.56;100.00;94706.16;5069279;28;20532;-73
2023/01/16 04:54:24;;;;;;;3.03;1.70;;;;;;;-0.94;100.00;94649.41;5044671;28;20867;-73
2023/01/16 04:56:51;;;;;;;1.67;1.47;;;;;;;-0.68;100.00;94684.09;5070266;28;20444;-73
2023/01/16 04:59:18;;;;;;;1.57;1.20;;;;;;;-0.63;100.00;94671.00;5071860;28;20436;-73
2023/01/16 05:01:45;;;;;;;1.20;1.10;;;;;;;-0.48;100.00;94697.66;5058243;28;20433;-73
2023/01/16 05:04:13;;;;;;;1.50;1.40;;;;;;;-0.48;100.00;94679.50;5049917;28;20455;-73
2023/01/16 05:06:41;;;;;;;5.30;1.63;;;;;;;-0.56;100.00;94678.38;5068720;28;20960;-73
2023/01/16 05:09:08;;;;;;;2.37;1.60;;;;;;;-0.77;100.00;94653.97;5071915;28;20909;-73
2023/01/16 05:11:35;;;;;;;2.30;1.27;;;;;;;-0.80;100.00;94646.78;5079740;28;20534;-73
2023/01/16 05:14:01;;;;;;;1.50;1.40;;;;;;;-0.86;100.00;94624.63;5093179;28;20888;-73
2023/01/16 05:16:28;;;;;;;1.10;1.00;;;;;;;-0.66;100.00;94666.44;5072110;28;20460;-73
2023/01/16 05:18:55;;;;;;;1.47;1.20;;;;;;;-0.87;100.00;94623.09;5071250;28;20985;-73
2023/01/16 05:21:22;;;;;;;5.13;1.30;;;;;;;-0.67;100.00;94644.13;5059017;28;20459;-73
2023/01/16 05:23:51;;;;;;;3.80;1.30;;;;;;;-0.58;100.00;94659.75;5058312;28;20488;-73
2023/01/16 05:26:17;;;;;;;2.23;1.50;;;;;;;-0.77;100.00;94625.44;5064418;28;20503;-73
2023/01/16 05:28:44;;;;;;;1.60;1.50;;;;;;;-0.80;100.00;94629.41;5048013;28;20836;-73
2023/01/16 05:31:11;;;;;;;2.43;1.20;;;;;;;-0.85;100.00;94621.72;5054558;28;20810;-73
2023/01/16 05:33:38;;;;;;;1.30;1.20;;;;;;;-0.65;100.00;94644.59;5071187;28;20940;-73
2023/01/16 05:36:05;;;;;;;2.33;1.43;;;;;;;-0.80;100.00;94623.41;5059122;28;20853;-73
2023/01/16 05:38:32;;;;;;;1.80;1.63;;;;;;;-0.90;100.00;94624.44;5071063;28;20428;-73
2023/01/16 05:40:58;;;;;;;2.20;1.30;;;;;;;-0.68;100.00;94637.38;5072638;28;20523;-73
2023/01/16 05:43:26;;;;;;;2.03;1.70;;;;;;;-0.67;100.00;94635.56;5058751;28;20463;-73
2023/01/16 05:45:52;;;;;;;1.33;1.23;;;;;;;-0.59;100.00;94629.66;5070747;28;20570;-73
2023/01/16 05:48:19;;;;;;;1.23;1.13;;;;;;;-0.64;100.00;94638.34;5072082;28;20424;-73
2023/01/16 05:50:46;;;;;;;1.73;1.50;;;;;;;-0.90;100.00;94598.50;5070993;28;20794;-73
2023/01/16 05:53:12;;;;;;;3.07;1.70;;;;;;;-0.66;100.00;94624.91;5058641;28;20516;-73
2023/01/16 05:55:43;;;;;;;5.30;1.57;;;;;;;-0.68;100.00;94626.25;5063553;28;20485;-73
2023/01/16 05:58:11;;;;;;;1.10;1.00;;;;;;;-0.76;100.00;94619.19;5066047;28;20463;-73
2023/01/16 06:00:39;;;;;;;4.50;1.20;;;;;;;-0.72;100.00;94612.34;5075174;28;20467;-73
2023/01/16 06:03:06;;;;;;;1.63;1.47;;;;;;;-0.80;100.00;94603.47;5049143;28;20975;-73
2023/01/16 06:05:34;;;;;;;1.63;1.37;;;;;;;-1.01;100.00;94576.47;5055924;28;20471;-73
2023/01/16 06:08:01;;;;;;;1.70;1.60;;;;;;;-1.17;100.00;94565.69;5073087;28;20535;-73
2023/01/16 06:10:28;;;;;;;1.60;1.30;;;;;;;-1.04;100.00;94582.25;5087144;28;20428;-73
2023/01/16 06:12:54;;;;;;;2.73;1.30;;;;;;;-1.25;100.00;94580.13;5054349;28;20539;-73
2023/01/16 06:15:21;;;;;;;1.83;1.37;;;;;;;-1.10;100.00;94588.59;5063226;28;20571;-73
2023/01/16 06:17:50;;;;;;;1.87;1.57;;;;;;;-1.18;100.00;94571.19;5066837;28;20452;-73
2023/01/16 06:20:17;;;;;;;7.97;4.73;;;;;;;-1.10;100.00;94581.59;5060350;28;20935;-73
2023/01/16 06:22:44;;;;;;;4.03;2.03;;;;;;;-1.05;100.00;94594.47;5071210;28;20554;-73
2023/01/16 06:25:11;;;;;;;1.73;1.57;;;;;;;-1.12;100.00;94586.31;5060725;28;20460;-73
2023/01/16 06:27:37;;;;;;;6.73;2.70;;;;;;;-1.12;100.00;94585.56;5068362;28;20436;-73
2023/01/16 06:30:08;;;;;;;2.77;1.90;;;;;;;-1.14;100.00;94579.91;5069757;28;20467;-74
2023/01/16 06:32:35;;;;;;;7.90;4.67;;;;;;;-1.45;100.00;94577.25;5069775;28;20468;-73
2023/01/16 06:35:01;;;;;;;4.23;3.83;;;;;;;-1.48;100.00;94583.75;5053068;28;20815;-73
2023/01/16 06:37:28;;;;;;;10.23;4.10;;;;;;;-1.93;100.00;94557.00;5069677;28;20994;-73
2023/01/16 06:39:56;;;;;;;4.20;2.53;;;;;;;-1.99;100.00;94535.66;5069812;28;20443;-73
2023/01/16 06:42:23;;;;;;;2.90;2.70;;;;;;;-2.13;100.00;94521.97;5069621;28;20474;-73
2023/01/16 06:44:50;;;;;;;4.20;2.70;;;;;;;-1.83;100.00;94561.97;5069604;28;20456;-73
2023/01/16 06:47:16;;;;;;;3.70;2.30;;;;;;;-1.80;100.00;94563.97;5069521;28;20438;-73
2023/01/16 06:49:43;;;;;;;7.03;3.10;;;;;;;-1.83;100.00;94561.97;5069630;28;20475;-73
2023/01/16 06:52:09;;;;;;;3.60;3.13;;;;;;;-2.13;100.00;94543.44;5069586;28;20429;-73
2023/01/16 06:54:36;;;;;;;6.17;2.93;;;;;;;-2.12;100.00;94544.19;5069612;28;20454;-73
2023/01/16 06:57:03;;;;;;;5.43;4.80;;;;;;;-1.99;100.00;94546.00;5057489;28;20458;-73
2023/01/16 06:59:29;;;;;;;4.37;3.40;;;;;;;-2.15;100.00;94514.47;5058013;28;20467;-73
2023/01/16 07:01:56;;;;;;;2.67;2.47;;;;;;;-1.86;100.00;94549.63;5052486;28;20460;-74
2023/01/16 07:04:23;;;;;;;5.10;3.20;;;;;;;-1.83;100.00;94534.25;5052728;28;20994;-74
2023/01/16 07:06:52;;;;;;;6.07;4.70;;;;;;;-2.08;100.00;94480.44;5039407;28;20451;-74
2023/01/16 07:09:22;;;;;;;5.80;4.50;;;;;;;-2.08;100.00;94498.56;5070903;28;20511;-74
2023/01/16 07:11:49;;;;;;;4.57;3.77;;;;;;;-1.84;100.00;94524.97;5070895;28;20416;-74
2023/01/16 07:22:43;;;;;;;6.43;5.70;;;;;;;-2.05;100.00;94474.66;5069161;28;20506;-73
2023/01/16 07:25:18;;;;;;;7.50;5.50;;;;;;;-1.86;100.00;94498.59;5069259;28;20549;-73
2023/01/16 07:27:48;;;;;;;2.90;2.70;;;;;;;-1.91;100.00;94485.75;5052758;28;20444;-73
2023/01/16 07:30:21;;;;;;;7.03;2.60;;;;;;;-1.80;100.00;94492.25;5063721;28;20502;-74
2023/01/16 07:32:48;;;;;;;10.50;5.93;;;;;;;-1.84;100.00;94469.81;5055983;28;20437;-74
2023/01/16 07:35:15;;;;;;;4.63;2.83;;;;;;;-1.67;100.00;94498.44;5069056;28;20921;-73
2023/01/16 07:37:45;;;;;;;3.73;2.10;;;;;;;-1.65;100.00;94480.00;5069188;28;20488;-73
2023/01/16 07:40:12;;;;;;;5.07;2.30;;;;;;;-1.65;100.00;94480.00;5069117;28;20940;-74
2023/01/16 07:42:39;;;;;;;4.03;2.10;;;;;;;-1.57;100.00;94463.75;5052629;28;20941;-73
2023/01/16 07:45:06;;;;;;;2.63;2.43;;;;;;;-1.80;100.00;94427.50;5067654;28;20466;-74
2023/01/16 07:47:34;;;;;;;1.70;1.60;;;;;;;-1.67;100.00;94441.44;5058752;28;20527;-73
2023/01/16 07:50:01;;;;;;;1.27;1.17;;;;;;;-1.55;100.00;94438.31;5070560;28;20446;-73
2023/01/16 07:52:27;;;;;;;1.27;1.17;;;;;;;-1.55;100.00;94448.69;5070615;28;20424;-73
2023/01/16 07:54:54;;;;;;;3.13;1.53;;;;;;;-1.54;100.00;94439.84;5069038;28;20444;-73
2023/01/16 07:57:21;;;;;;;1.93;1.47;;;;;;;-1.57;100.00;94397.19;5069318;28;20434;-73
2023/01/16 07:59:47;;;;;;;3.97;1.30;;;;;;;-1.35;100.00;94432.63;5052461;28;20454;-73
2023/01/16 08:02:14;;;;;;;1.80;1.70;;;;;;;-1.77;100.00;94369.16;5069367;28;20773;-74
2023/01/16 08:04:41;;;;;;;1.47;1.37;;;;;;;-1.39;100.00;94405.78;5054620;28;20562;-74
2023/01/16 08:07:08;;;;;;;5.10;2.13;;;;;;;-1.32;100.00;94413.16;5081451;28;20446;-73
2023/01/16 08:09:34;;;;;;;8.00;1.80;;;;;;;-1.49;100.00;94386.06;5069265;28;20424;-73
2023/01/16 08:12:03;;;;;;;1.30;1.20;;;;;;;-1.52;100.00;94375.53;5071763;28;20428;-74
2023/01/16 08:14:30;;;;;;;4.67;1.40;;;;;;;-1.55;100.00;94352.84;5054477;28;20436;-74
2023/01/16 08:16:56;;;;;;;2.33;1.70;;;;;;;-1.21;100.00;94391.06;5079847;28;20452;-74
2023/01/16 08:19:23;;;;;;;4.47;1.60;;;;;;;-1.45;100.00;94350.00;5095623;28;20456;-74
2023/01/16 08:21:50;;;;;;;2.90;2.00;;;;;;;-1.29;100.00;94353.69;5095151;28;20497;-74
2023/01/16 08:24:17;;;;;;;1.77;1.57;;;;;;;-1.35;100.00;94344.53;5088385;28;20566;-74
2023/01/16 08:26:44;;;;;;;6.50;2.30;;;;;;;-1.05;100.00;94366.28;5069158;28;21044;-74
2023/01/16 08:29:10;;;;;;;1.53;1.40;;;;;;;-1.04;100.00;94349.66;5068881;28;20428;-74
2023/01/16 08:31:37;;;;;;;2.23;2.13;;;;;;;-1.09;100.00;94323.88;5071389;28;20519;-74
2023/01/16 08:34:04;;;;;;;1.80;1.40;;;;;;;-1.04;100.00;94325.56;5068492;28;20429;-74
2023/01/16 08:36:31;;;;;;;1.70;1.43;;;;;;;-1.10;100.00;94319.75;5046376;28;20566;-74
2023/01/16 08:38:57;;;;;;;1.60;1.50;;;;;;;-0.86;100.00;94339.31;5072126;28;20487;-74
2023/01/16 08:52:39;;;;;;;1.43;1.33;;;;;;;-0.87;100.00;94284.09;5071945;28;20899;-74
2023/01/16 08:55:06;;;;;;;3.13;2.07;;;;;;;-0.52;100.00;94312.66;5069640;28;20871;-74
2023/01/16 08:57:33;;;;;;;4.07;1.83;;;;;;;-0.40;100.00;94305.00;5045677;28;20578;-74
2023/01/16 09:00:02;;;;;;;1.87;1.60;;;;;;;-0.36;100.00;94301.50;5073155;28;20425;-74
2023/01/16 09:02:31;;;;;;;3.50;1.77;;;;;;;-0.51;100.00;94277.88;5071943;28;20952;-74
2023/01/16 09:04:57;;;;;;;2.00;1.37;;;;;;;-0.51;100.00;94257.09;5076096;28;20465;-74
2023/01/16 09:07:24;;;;;;;2.47;1.80;;;;;;;-0.39;100.00;94244.28;5081656;28;20489;-74
2023/01/16 09:09:51;;;;;;;6.70;2.53;;;;;;;-0.38;100.00;94248.38;5072932;28;20527;-74
2023/01/16 09:15:04;;;;;;;1.60;1.50;;;;;;;0.19;100.00;94282.63;5072880;28;20527;-74
2023/01/16 09:17:31;;;;;;;1.73;1.63;;;;;;;0.16;100.00;94266.91;5071450;28;20978;-74
2023/01/16 09:19:58;;;;;;;1.40;1.30;;;;;;;0.34;100.00;94273.53;5054924;28;20813;-74
2023/01/16 09:22:27;;;;;;;1.80;1.63;;;;;;;0.36;100.00;94278.44;5071256;28;20463;-74
2023/01/16 09:24:54;;;;;;;1.50;1.17;;;;;;;0.18;100.00;94218.75;5071289;28;20576;-74
2023/01/16 09:27:20;;;;;;;5.07;2.17;;;;;;;0.45;100.00;94269.53;5072821;28;20459;-74
2023/01/16 09:29:47;;;;;;;1.43;1.13;;;;;;;0.38;100.00;94234.69;5074437;28;20433;-74
2023/01/16 09:32:14;;;;;;;1.00;1.00;;;;;;;0.49;100.00;94241.84;5066475;28;20452;-74
2023/01/16 09:34:41;;;;;;;4.90;1.57;;;;;;;0.49;100.00;94228.06;5054698;28;20428;-74
2023/01/16 09:37:08;;;;;;;3.47;1.67;;;;;;;0.48;100.00;94216.91;5070920;28;20563;-74
2023/01/16 09:39:35;;;;;;;2.17;1.97;;;;;;;0.75;100.00;94240.94;5054578;28;20448;-73
2023/01/16 09:45:01;;;;;;;2.10;1.40;;;;;;;0.67;100.00;94194.94;5070761;28;20551;-74
2023/01/16 09:47:29;;;;;;;1.50;1.27;;;;;;;0.85;100.00;94212.72;5072351;28;21201;-74
2023/01/16 09:50:03;;;;;;;3.93;1.60;;;;;;;1.00;100.00;94227.00;5057475;28;20782;-74
2023/01/16 09:58:36;;;;;;;6.70;1.90;;;;;;;1.16;100.00;94191.53;5066573;28;20420;-74
2023/01/16 10:01:04;;;;;;;2.40;1.43;;;;;;;1.23;100.00;94180.63;5072384;28;20430;-74
2023/01/16 10:03:32;;;;;;;2.10;1.57;;;;;;;1.23;100.00;94177.25;5071393;28;20768;-74
2023/01/16 10:06:31;;;;;;;2.83;1.53;;;;;;;1.38;100.00;94176.66;5076717;28;20467;-74
2023/01/16 10:09:24;;;;;;;1.83;1.50;;;;;;;1.54;100.00;94169.75;5024163;28;20472;-74
2023/01/16 10:11:57;;;;;;;5.27;1.37;;;;;;;1.57;100.00;94166.50;5052283;28;20854;-74
2023/01/16 10:14:36;;;;;;;1.73;1.40;;;;;;;1.63;100.00;94161.88;5066083;28;20924;-74
2023/01/16 10:17:16;;;;;;;2.47;1.50;;;;;;;1.61;100.00;94154.38;5070132;28;20454;-74
2023/01/16 10:19:49;;;;;;;2.33;2.13;;;;;;;1.63;100.00;94146.25;5053551;28;20462;-74
2023/01/16 10:22:46;;;;;;;3.37;1.60;;;;;;;1.78;100.00;94148.97;5069983;28;20483;-74
2023/01/16 10:25:26;;;;;;;1.60;1.50;;;;;;;1.81;100.00;94139.00;5069939;28;20515;-74
2023/01/16 10:28:30;;;;;;;1.90;1.30;;;;;;;1.88;100.00;94134.03;5057065;28;20479;-74
2023/01/16 10:31:13;;;;;;;2.00;1.80;;;;;;;1.93;100.00;94126.75;5069999;28;20482;-74
2023/01/16 10:33:47;;;;;;;1.97;1.60;;;;;;;2.02;100.00;94118.81;5069824;28;20546;-74
2023/01/16 10:36:22;;;;;;;2.30;1.07;;;;;;;2.07;100.00;94113.38;5069778;28;20483;-74
2023/01/16 10:38:55;;;;;;;1.80;1.70;;;;;;;2.10;100.00;94106.75;5069796;28;20432;-74
2023/01/16 10:50:24;;;;;;;4.40;1.33;;;;;;;1.90;100.00;94046.63;5071068;28;20435;-74
2023/01/16 10:53:04;;;;;;;3.30;1.73;;;;;;;2.11;100.00;94046.50;5069312;28;20786;-74
2023/01/16 10:55:35;;;;;;;2.30;1.33;;;;;;;2.39;100.00;94072.59;5069394;28;20488;-74
2023/01/16 10:58:21;;;;;;;7.70;2.60;;;;;;;2.14;100.00;94042.47;5052878;28;20436;-74
2023/01/16 11:00:49;;;;;;;2.30;1.60;;;;;;;2.12;100.00;94040.19;5070980;28;20420;-74
2023/01/16 11:03:31;;;;;;;1.13;1.03;;;;;;;2.16;100.00;94035.09;5069429;28;21258;-74
2023/01/16 11:06:20;;;;;;;4.43;1.50;;;;;;;2.46;100.00;94059.03;5076985;28;20970;-74
2023/01/16 11:09:13;;;;;;;4.03;1.50;;;;;;;2.48;100.00;94044.56;5069613;28;20509;-74
2023/01/16 11:20:20;;;;;;;1.43;1.33;;;;;;;2.58;100.00;94025.09;5060896;28;20435;-74
2023/01/16 11:22:57;;;;;;;1.83;1.60;;;;;;;2.37;100.00;93988.75;5069398;28;20505;-74
2023/01/16 11:25:25;;;;;;;1.30;1.13;;;;;;;2.69;100.00;94000.06;5070678;28;20475;-74
2023/01/16 11:27:52;;;;;;;1.53;1.30;;;;;;;2.83;100.00;93986.63;5069193;28;20454;-74
2023/01/16 11:30:26;;;;;;;1.07;0.97;;;;;;;2.81;100.00;93967.94;5069230;28;20446;-74
2023/01/16 11:32:56;;;;;;;2.00;1.47;;;;;;;2.68;100.00;93943.78;5073493;28;20958;-74
2023/01/16 11:35:33;;;;;;;2.17;1.17;;;;;;;2.73;100.00;93950.59;5052426;28;20456;-74
2023/01/16 11:38:05;;;;;;;2.73;1.17;;;;;;;2.66;100.00;93931.03;5070664;28;20421;-74
2023/01/16 11:40:36;;;;;;;2.43;1.43;;;;;;;3.01;100.00;93934.88;5069132;28;20427;-74
2023/01/16 11:46:07;;;;;;;3.10;1.73;;;;;;;2.93;100.00;93902.63;5068827;28;20573;-74
2023/01/16 11:48:45;;;;;;;3.70;1.30;;;;;;;3.04;100.00;93913.31;5068911;28;20578;-74
2023/01/16 11:51:18;;;;;;;3.47;1.93;;;;;;;3.37;100.00;93923.41;5068906;28;20808;-74
2023/01/16 11:53:47;;;;;;;5.53;1.77;;;;;;;3.52;100.00;93917.38;5068867;28;20479;-74
2023/01/16 11:56:38;;;;;;;2.23;1.67;;;;;;;3.54;100.00;93910.72;5046015;28;20461;-74
2023/01/16 11:59:23;;;;;;;2.17;1.57;;;;;;;3.22;100.00;93898.81;5059361;28;20421;-74
2023/01/16 12:05:53;;;;;;;2.07;1.37;;;;;;;3.39;100.00;93888.00;5072260;28;20447;-74
2023/01/16 12:07:41;;;;;;;1.70;1.30;;;;;;;3.42;100.00;93871.66;5079950;28;20467;-74
2023/01/16 12:10:28;;;;;;;2.50;1.53;;;;;;;3.48;100.00;93882.63;5072532;28;20530;-74
2023/01/16 12:16:02;;;;;;;2.30;1.47;;;;;;;3.47;100.00;93828.84;5073790;28;20444;-74
2023/01/16 12:18:46;;;;;;;1.50;1.10;;;;;;;3.79;100.00;93819.03;5055997;28;20463;-74
2023/01/16 12:21:22;;;;;;;3.00;1.30;;;;;;;3.74;100.00;93827.91;5072456;28;20423;-74
2023/01/16 12:24:20;;;;;;;1.80;1.50;;;;;;;3.59;100.00;93807.81;5055777;28;20479;-74
2023/01/16 12:27:12;;;;;;;3.30;2.17;;;;;;;3.47;100.00;93802.72;5046532;28;20491;-74
2023/01/16 12:29:45;;;;;;;1.43;1.10;;;;;;;3.38;100.00;93789.13;5059989;28;20424;-74
2023/01/16 12:32:30;;;;;;;1.77;1.40;;;;;;;3.32;100.00;93786.03;5072282;28;20494;-74
2023/01/16 12:35:13;;;;;;;3.67;1.50;;;;;;;3.32;100.00;93767.75;5076613;28;20428;-74
2023/01/16 12:38:10;;;;;;;2.10;1.30;;;;;;;3.33;100.00;93761.41;5062985;28;20505;-73
2023/01/16 12:40:51;;;;;;;1.60;1.50;;;;;;;3.56;100.00;93766.72;5055848;28;20475;-74
2023/01/16 12:43:46;;;;;;;1.53;1.23;;;;;;;3.75;100.00;93747.69;5072403;28;20494;-74
2023/01/16 12:46:38;;;;;;;1.40;1.30;;;;;;;3.70;100.00;93735.63;5071757;28;20467;-73
2023/01/16 12:49:29;;;;;;;1.63;1.50;;;;;;;3.93;100.00;93717.38;5073491;28;20494;-74
2023/01/16 12:52:10;;;;;;;1.80;0.80;;;;;;;3.66;100.00;93692.28;5072157;28;20420;-74